Time;durP1;ratioP1;P1;durP2;ratioP2;P2;SDS_P1;SDS_P2;PMS_P1;PMS_P2;Temp;Humidity;BMP_temperature;BMP_pressure;BME280_temperature;BME280_humidity;BME280_pressure;Samples;Min_cycle;Max_cycle;Signal;HPM_P1;HPM_P2
2021/08/21 00:00:15;;;;;;;2.42;1.83;;;19.20;99.90;;;;;;5072063;28;20054;-73
2021/08/21 00:02:40;;;;;;;3.65;2.17;;;19.20;99.90;;;;;;5071394;28;20100;-73
2021/08/21 00:05:07;;;;;;;5.47;2.28;;;19.20;99.90;;;;;;5070733;28;20031;-74
2021/08/21 00:07:33;;;;;;;3.30;2.28;;;19.20;99.90;;;;;;5071719;28;20107;-73
2021/08/21 00:10:00;;;;;;;2.65;2.10;;;19.20;99.90;;;;;;5072589;28;20484;-73
2021/08/21 00:12:26;;;;;;;4.72;2.70;;;19.20;99.90;;;;;;5072604;28;20035;-73
2021/08/21 00:14:52;;;;;;;2.75;2.35;;;19.20;99.90;;;;;;5072052;28;20116;-73
2021/08/21 00:17:18;;;;;;;3.42;3.08;;;19.10;99.90;;;;;;5072510;28;20086;-73
2021/08/21 00:19:44;;;;;;;3.60;2.83;;;19.10;99.90;;;;;;5070181;28;20126;-73
2021/08/21 00:22:10;;;;;;;7.50;3.47;;;19.10;99.90;;;;;;5072735;28;20124;-74
2021/08/21 00:24:36;;;;;;;8.50;4.20;;;19.10;99.90;;;;;;5071238;28;20044;-72
2021/08/21 00:27:02;;;;;;;6.75;3.47;;;19.10;99.90;;;;;;5071941;28;20103;-73
2021/08/21 00:29:27;;;;;;;4.82;3.50;;;19.00;99.90;;;;;;5070462;28;20119;-73
2021/08/21 00:31:53;;;;;;;5.65;3.13;;;19.00;99.90;;;;;;5069698;28;20512;-72
2021/08/21 00:34:19;;;;;;;3.97;2.72;;;19.00;99.90;;;;;;5070531;28;20384;-74
2021/08/21 00:36:45;;;;;;;6.93;3.28;;;19.00;99.90;;;;;;5069832;28;20020;-73
2021/08/21 00:39:11;;;;;;;7.25;3.45;;;18.90;99.90;;;;;;5070593;28;20040;-73
2021/08/21 00:41:37;;;;;;;6.50;2.70;;;18.90;99.90;;;;;;5071219;28;20031;-73
2021/08/21 00:44:06;;;;;;;3.42;2.63;;;18.90;99.90;;;;;;5070579;28;20116;-73
2021/08/21 00:46:31;;;;;;;5.32;3.33;;;18.80;99.90;;;;;;5070623;28;20031;-74
2021/08/21 00:48:57;;;;;;;4.05;3.20;;;18.80;99.90;;;;;;5069806;28;20116;-73
2021/08/21 00:51:23;;;;;;;4.82;3.15;;;18.80;99.90;;;;;;5071034;28;20028;-73
2021/08/21 00:53:48;;;;;;;2.85;2.65;;;18.80;99.90;;;;;;5070888;28;20090;-72
2021/08/21 00:56:14;;;;;;;5.20;3.25;;;18.80;99.90;;;;;;5071869;28;20032;-73
2021/08/21 00:58:40;;;;;;;3.75;2.75;;;18.80;99.90;;;;;;5070635;28;20028;-72
2021/08/21 01:01:07;;;;;;;5.35;3.83;;;18.80;99.90;;;;;;5069702;28;20060;-72
2021/08/21 01:03:33;;;;;;;6.68;3.20;;;18.70;99.90;;;;;;5071336;28;20082;-73
2021/08/21 01:05:59;;;;;;;5.97;2.75;;;18.80;99.90;;;;;;5068869;28;20029;-74
2021/08/21 01:08:24;;;;;;;3.38;3.08;;;18.80;99.90;;;;;;5070856;28;20103;-73
2021/08/21 01:10:51;;;;;;;6.00;3.28;;;18.90;99.90;;;;;;5069288;28;20079;-72
2021/08/21 01:13:16;;;;;;;3.50;2.67;;;18.80;99.90;;;;;;5071644;28;20032;-73
2021/08/21 01:15:42;;;;;;;4.97;3.50;;;18.80;99.90;;;;;;5070751;28;20569;-74
2021/08/21 01:18:08;;;;;;;2.97;2.75;;;18.80;99.90;;;;;;5071051;28;20021;-73
2021/08/21 01:20:34;;;;;;;4.30;2.85;;;18.70;99.90;;;;;;5068945;28;20055;-74
2021/08/21 01:23:00;;;;;;;3.97;2.67;;;18.80;99.90;;;;;;5069086;28;20119;-73
2021/08/21 01:25:28;;;;;;;4.07;3.00;;;18.70;99.90;;;;;;5069794;28;20024;-74
2021/08/21 01:27:54;;;;;;;4.10;3.00;;;18.80;99.90;;;;;;5069114;28;20031;-73
2021/08/21 01:30:19;;;;;;;3.08;2.78;;;18.80;99.90;;;;;;5071076;28;20132;-74
2021/08/21 01:32:45;;;;;;;3.00;2.65;;;18.80;99.90;;;;;;5068496;28;20400;-74
2021/08/21 01:35:11;;;;;;;2.78;2.47;;;18.70;99.90;;;;;;5069765;28;20025;-74
2021/08/21 01:37:37;;;;;;;4.00;2.70;;;18.80;99.90;;;;;;5068939;28;20024;-72
2021/08/21 01:40:03;;;;;;;5.57;3.65;;;18.70;99.90;;;;;;5079131;28;20551;-73
2021/08/21 01:42:29;;;;;;;6.22;2.97;;;18.70;99.90;;;;;;5076681;28;20423;-73
2021/08/21 01:44:55;;;;;;;4.40;2.47;;;18.70;99.90;;;;;;5070527;28;20033;-73
2021/08/21 01:47:21;;;;;;;3.40;2.97;;;18.60;99.90;;;;;;5070491;28;20052;-72
2021/08/21 01:50:09;;;;;;;3.88;2.58;;;18.70;99.90;;;;;;5068254;28;20078;-73
2021/08/21 01:52:35;;;;;;;4.32;3.35;;;18.70;99.90;;;;;;5067741;28;20133;-73
2021/08/21 01:55:01;;;;;;;2.90;2.60;;;18.70;99.90;;;;;;5069674;28;20040;-72
2021/08/21 01:57:26;;;;;;;3.30;3.00;;;18.60;99.90;;;;;;5071064;28;20024;-74
2021/08/21 01:59:52;;;;;;;5.82;3.15;;;18.70;99.90;;;;;;5069793;28;20458;-74
2021/08/21 02:02:20;;;;;;;2.97;2.67;;;18.70;99.90;;;;;;5070539;28;20078;-73
2021/08/21 02:04:46;;;;;;;3.60;2.95;;;18.70;99.90;;;;;;5072381;28;20032;-73
2021/08/21 02:07:11;;;;;;;4.45;3.10;;;18.70;99.90;;;;;;5073250;28;20074;-73
2021/08/21 02:09:37;;;;;;;4.45;2.63;;;18.70;99.90;;;;;;5073370;28;20322;-73
2021/08/21 02:12:05;;;;;;;3.67;2.67;;;18.70;99.90;;;;;;5072856;28;20028;-73
2021/08/21 02:14:31;;;;;;;4.00;2.90;;;18.70;99.90;;;;;;5073211;28;20033;-72
2021/08/21 02:17:02;;;;;;;4.30;3.33;;;18.60;99.90;;;;;;5073953;28;20107;-74
2021/08/21 02:19:28;;;;;;;3.13;2.78;;;18.50;99.90;;;;;;5074387;28;20557;-74
2021/08/21 02:21:56;;;;;;;3.38;3.03;;;18.40;99.90;;;;;;5074002;28;20094;-73
2021/08/21 02:24:25;;;;;;;4.97;3.10;;;18.40;99.90;;;;;;5073413;28;20035;-74
2021/08/21 02:26:56;;;;;;;6.55;2.78;;;18.40;99.90;;;;;;5072536;28;20031;-74
2021/08/21 02:29:22;;;;;;;3.47;2.90;;;18.50;99.90;;;;;;5074552;28;20126;-74
2021/08/21 02:31:48;;;;;;;4.68;3.30;;;18.40;99.90;;;;;;5073969;28;20346;-74
2021/08/21 02:34:13;;;;;;;5.68;3.05;;;18.30;99.90;;;;;;5073050;28;20051;-74
2021/08/21 02:36:41;;;;;;;3.40;3.10;;;18.40;99.90;;;;;;5072899;28;20525;-74
2021/08/21 02:39:07;;;;;;;3.30;2.80;;;18.50;99.90;;;;;;5072728;28;20024;-74
2021/08/21 02:41:33;;;;;;;4.50;2.70;;;18.40;99.90;;;;;;5072751;28;20032;-73
2021/08/21 02:43:58;;;;;;;4.53;2.90;;;18.40;99.90;;;;;;5073258;28;20129;-73
2021/08/21 02:46:24;;;;;;;3.78;2.80;;;18.30;99.90;;;;;;5073736;28;20021;-73
2021/08/21 02:48:50;;;;;;;3.92;2.78;;;18.40;99.90;;;;;;5073257;28;20112;-72
2021/08/21 02:51:15;;;;;;;4.10;3.05;;;18.30;99.90;;;;;;5073527;28;20034;-73
2021/08/21 02:53:41;;;;;;;4.07;2.53;;;18.30;99.90;;;;;;5072969;28;20093;-73
2021/08/21 02:56:07;;;;;;;7.53;3.05;;;18.30;99.90;;;;;;5072263;28;20024;-73
2021/08/21 02:58:32;;;;;;;5.28;2.92;;;18.30;99.90;;;;;;5072391;28;20024;-73
2021/08/21 03:00:58;;;;;;;4.70;2.90;;;18.30;99.90;;;;;;5071459;28;20026;-74
2021/08/21 03:03:24;;;;;;;4.40;2.80;;;18.30;99.90;;;;;;5072091;28;20162;-73
2021/08/21 03:05:49;;;;;;;4.00;2.65;;;18.40;99.90;;;;;;5071371;28;20031;-73
2021/08/21 03:08:15;;;;;;;2.70;2.35;;;18.30;99.90;;;;;;5072056;28;20234;-74
2021/08/21 03:10:40;;;;;;;3.90;2.67;;;18.20;99.90;;;;;;5072094;28;20035;-73
2021/08/21 03:13:06;;;;;;;2.65;2.28;;;18.30;99.90;;;;;;5072883;28;20020;-74
2021/08/21 03:15:32;;;;;;;4.10;2.65;;;18.10;99.90;;;;;;5072120;28;20016;-73
2021/08/21 03:17:58;;;;;;;4.45;2.30;;;18.20;99.90;;;;;;5071319;28;20381;-74
2021/08/21 03:20:25;;;;;;;6.15;2.35;;;18.20;99.90;;;;;;5071653;28;20070;-74
2021/08/21 03:22:51;;;;;;;4.28;2.50;;;18.10;99.90;;;;;;5071195;28;20060;-73
2021/08/21 03:25:16;;;;;;;3.72;2.83;;;18.10;99.90;;;;;;5072149;28;20052;-74
2021/08/21 03:27:42;;;;;;;4.45;3.22;;;18.10;99.90;;;;;;5071855;28;20037;-75
2021/08/21 03:30:08;;;;;;;10.35;3.30;;;18.10;99.90;;;;;;5071297;28;20020;-74
2021/08/21 03:32:34;;;;;;;3.85;2.80;;;18.00;99.90;;;;;;5072900;28;20044;-74
2021/08/21 03:35:00;;;;;;;4.57;2.17;;;18.00;99.90;;;;;;5071071;28;20479;-73
2021/08/21 03:37:25;;;;;;;3.03;2.60;;;18.00;99.90;;;;;;5071878;28;20119;-72
2021/08/21 03:39:51;;;;;;;5.85;2.83;;;18.00;99.90;;;;;;5071270;28;20087;-74
2021/08/21 03:42:17;;;;;;;4.07;2.53;;;17.90;99.90;;;;;;5073687;28;20381;-74
2021/08/21 03:44:42;;;;;;;6.07;3.00;;;18.10;99.90;;;;;;5073054;28;20036;-73
2021/08/21 03:47:09;;;;;;;5.38;2.55;;;18.00;99.90;;;;;;5072191;28;20024;-73
2021/08/21 03:49:34;;;;;;;3.78;2.53;;;18.00;99.90;;;;;;5072310;28;20024;-74
2021/08/21 03:52:00;;;;;;;4.00;2.83;;;18.00;99.90;;;;;;5072103;28;20111;-73
2021/08/21 03:54:26;;;;;;;3.83;2.63;;;17.90;99.90;;;;;;5071064;28;20081;-73
2021/08/21 03:56:51;;;;;;;3.92;2.70;;;17.90;99.90;;;;;;5070712;28;20024;-73
2021/08/21 03:59:17;;;;;;;5.32;2.22;;;17.90;99.90;;;;;;5071368;28;20025;-74
2021/08/21 04:01:43;;;;;;;3.35;2.95;;;18.00;99.90;;;;;;5072445;28;20507;-74
2021/08/21 04:04:08;;;;;;;6.68;2.47;;;17.90;99.90;;;;;;5082077;28;20070;-74
2021/08/21 04:06:36;;;;;;;3.50;2.63;;;17.80;99.90;;;;;;5090624;28;20469;-73
2021/08/21 04:09:02;;;;;;;3.95;2.85;;;17.70;99.90;;;;;;5091244;28;20465;-73
2021/08/21 04:11:27;;;;;;;2.50;2.30;;;17.80;99.90;;;;;;5091745;28;20077;-74
2021/08/21 04:13:53;;;;;;;3.05;2.55;;;17.70;99.90;;;;;;5092370;28;20426;-73
2021/08/21 04:16:18;;;;;;;3.70;2.40;;;17.70;99.90;;;;;;5091614;28;20035;-74
2021/08/21 04:18:44;;;;;;;3.92;2.20;;;17.70;99.90;;;;;;5092711;28;20421;-74
2021/08/21 04:21:10;;;;;;;2.88;2.50;;;17.80;99.90;;;;;;5089925;28;20056;-73
2021/08/21 04:23:36;;;;;;;4.25;2.97;;;17.80;99.90;;;;;;5092539;28;20053;-74
2021/08/21 04:26:02;;;;;;;4.20;2.67;;;17.80;99.90;;;;;;5089965;28;20032;-73
2021/08/21 04:28:29;;;;;;;3.35;2.63;;;17.80;99.90;;;;;;5092425;28;20103;-73
2021/08/21 04:30:55;;;;;;;3.20;2.83;;;17.70;99.90;;;;;;5091918;28;20094;-73
2021/08/21 04:33:21;;;;;;;3.58;2.97;;;17.70;99.90;;;;;;5092087;28;20032;-73
2021/08/21 04:35:47;;;;;;;4.90;3.35;;;17.70;99.90;;;;;;5091785;28;20099;-72
2021/08/21 04:38:12;;;;;;;4.53;3.00;;;17.60;99.90;;;;;;5091922;28;20046;-73
2021/08/21 04:40:38;;;;;;;2.95;2.63;;;17.70;99.90;;;;;;5092099;28;20016;-74
2021/08/21 04:43:04;;;;;;;6.15;2.58;;;17.70;99.90;;;;;;5090244;28;20097;-73
2021/08/21 04:45:29;;;;;;;4.00;2.67;;;17.80;99.90;;;;;;5092393;28;20467;-74
2021/08/21 04:47:55;;;;;;;3.70;2.47;;;17.70;99.90;;;;;;5091380;28;20042;-73
2021/08/21 04:50:21;;;;;;;2.92;2.53;;;17.90;99.90;;;;;;5090856;28;20035;-73
2021/08/21 04:52:46;;;;;;;3.65;2.50;;;17.90;99.90;;;;;;5090698;28;20028;-74
2021/08/21 04:55:12;;;;;;;5.63;2.70;;;17.90;99.90;;;;;;5090131;28;20028;-73
2021/08/21 04:57:38;;;;;;;2.97;2.33;;;17.90;99.90;;;;;;5090474;28;20115;-74
2021/08/21 05:00:05;;;;;;;3.00;2.40;;;17.90;99.90;;;;;;5089699;28;20024;-73
2021/08/21 05:02:31;;;;;;;8.18;3.58;;;18.00;99.90;;;;;;5089329;28;20050;-73
2021/08/21 05:04:56;;;;;;;4.25;2.67;;;18.00;99.90;;;;;;5091217;28;20470;-74
2021/08/21 05:07:22;;;;;;;3.42;2.83;;;18.00;99.90;;;;;;5091580;28;20024;-73
2021/08/21 05:09:48;;;;;;;4.05;2.72;;;18.00;99.90;;;;;;5091813;28;20028;-73
2021/08/21 05:12:14;;;;;;;4.55;2.83;;;18.10;99.90;;;;;;5091582;28;20036;-75
2021/08/21 05:14:39;;;;;;;3.25;2.60;;;18.10;99.90;;;;;;5090284;28;20334;-75
2021/08/21 05:17:05;;;;;;;5.50;2.97;;;18.10;99.90;;;;;;5090674;28;20136;-74
2021/08/21 05:19:38;;;;;;;6.30;4.60;;;18.20;99.90;;;;;;5091970;28;20112;-74
2021/08/21 05:22:23;;;;;;;6.13;4.05;;;18.20;99.90;;;;;;5091372;28;20131;-75
2021/08/21 05:24:50;;;;;;;5.97;3.33;;;18.40;99.90;;;;;;5091556;28;20115;-75
2021/08/21 05:27:18;;;;;;;5.75;3.05;;;18.40;99.90;;;;;;5091336;28;20469;-76
2021/08/21 05:29:44;;;;;;;4.13;2.65;;;18.30;99.90;;;;;;5091776;28;20032;-75
2021/08/21 05:32:09;;;;;;;5.22;2.92;;;18.40;99.90;;;;;;5089393;28;20504;-74
2021/08/21 05:34:35;;;;;;;6.78;2.30;;;18.50;99.90;;;;;;5091429;28;20034;-75
2021/08/21 05:37:00;;;;;;;5.95;2.42;;;18.60;99.90;;;;;;5090453;28;20044;-74
2021/08/21 05:39:27;;;;;;;3.63;2.38;;;18.60;99.90;;;;;;5090785;28;20020;-74
2021/08/21 05:41:52;;;;;;;3.95;3.45;;;18.60;99.90;;;;;;5089837;28;20593;-75
2021/08/21 05:44:18;;;;;;;6.35;3.45;;;18.60;99.90;;;;;;5090054;28;20028;-75
2021/08/21 05:46:44;;;;;;;3.58;2.85;;;18.60;99.90;;;;;;5090399;28;20337;-75
2021/08/21 05:49:10;;;;;;;3.47;3.13;;;18.70;99.90;;;;;;5089087;28;20047;-74
2021/08/21 05:51:35;;;;;;;3.60;2.22;;;18.70;99.90;;;;;;5089788;28;20039;-75
2021/08/21 05:54:01;;;;;;;4.28;2.40;;;18.70;99.90;;;;;;5090313;28;20032;-75
2021/08/21 05:56:27;;;;;;;4.00;2.67;;;18.70;99.90;;;;;;5090921;28;20388;-74
2021/08/21 05:58:52;;;;;;;5.22;2.50;;;18.80;99.90;;;;;;5090615;28;20020;-74
2021/08/21 06:01:18;;;;;;;5.43;2.90;;;18.80;99.90;;;;;;5089651;28;20059;-75
2021/08/21 06:03:44;;;;;;;6.00;2.10;;;18.80;99.90;;;;;;5089691;28;20502;-74
2021/08/21 06:06:11;;;;;;;4.25;2.40;;;18.90;99.90;;;;;;5072116;28;20024;-75
2021/08/21 06:08:37;;;;;;;3.75;1.80;;;18.90;99.90;;;;;;5090637;28;20039;-75
2021/08/21 06:11:03;;;;;;;2.75;2.10;;;18.90;99.90;;;;;;5090139;28;20048;-75
2021/08/21 06:13:29;;;;;;;5.35;2.67;;;19.00;99.90;;;;;;5089872;28;20401;-76
2021/08/21 06:15:54;;;;;;;4.43;2.50;;;19.10;99.90;;;;;;5089181;28;20028;-75
2021/08/21 06:18:20;;;;;;;4.63;2.55;;;19.20;99.90;;;;;;5091002;28;20032;-76
2021/08/21 06:20:46;;;;;;;3.30;2.20;;;19.40;99.90;;;;;;5090712;28;20175;-75
2021/08/21 06:23:11;;;;;;;2.63;2.08;;;19.30;99.90;;;;;;5089767;28;20047;-75
2021/08/21 06:25:37;;;;;;;2.72;2.42;;;19.20;99.90;;;;;;5089354;28;20028;-74
2021/08/21 06:28:03;;;;;;;3.80;2.42;;;19.20;99.90;;;;;;5089935;28;20031;-75
2021/08/21 06:30:28;;;;;;;5.75;3.30;;;19.30;99.90;;;;;;5090206;28;20050;-75
2021/08/21 06:32:54;;;;;;;5.97;2.60;;;19.30;99.90;;;;;;5089821;28;20032;-74
2021/08/21 06:35:19;;;;;;;3.03;2.67;;;19.40;99.90;;;;;;5090509;28;20147;-74
2021/08/21 06:37:45;;;;;;;3.00;2.53;;;19.60;99.90;;;;;;5089041;28;20036;-74
2021/08/21 06:40:11;;;;;;;5.05;2.97;;;19.70;99.90;;;;;;5089863;28;20534;-74
2021/08/21 06:42:37;;;;;;;8.27;3.22;;;19.90;99.90;;;;;;5090753;28;20025;-75
2021/08/21 06:45:03;;;;;;;4.97;2.70;;;20.00;99.90;;;;;;5089725;28;20038;-74
2021/08/21 06:47:29;;;;;;;6.32;2.72;;;19.90;99.90;;;;;;5089155;28;20487;-77
2021/08/21 06:49:55;;;;;;;6.45;3.40;;;20.20;99.90;;;;;;5091965;28;20107;-73
2021/08/21 06:52:20;;;;;;;4.35;2.50;;;20.20;99.90;;;;;;5092995;28;20067;-75
2021/08/21 06:54:46;;;;;;;5.55;2.58;;;20.40;99.90;;;;;;5092779;28;20085;-75
2021/08/21 06:57:11;;;;;;;6.15;3.42;;;20.60;99.90;;;;;;5093128;28;20124;-75
2021/08/21 06:59:37;;;;;;;3.30;2.50;;;20.60;99.90;;;;;;5092497;28;20024;-74
2021/08/21 07:02:03;;;;;;;6.50;2.67;;;20.50;99.90;;;;;;5091992;28;20024;-74
2021/08/21 07:04:29;;;;;;;3.92;2.55;;;20.40;99.90;;;;;;5093866;28;20040;-75
2021/08/21 07:06:55;;;;;;;5.80;2.38;;;20.30;99.90;;;;;;5093119;28;20050;-73
2021/08/21 07:09:21;;;;;;;4.45;2.33;;;20.40;99.90;;;;;;5093391;28;20032;-76
2021/08/21 07:11:47;;;;;;;3.25;2.95;;;20.40;99.90;;;;;;5092195;28;20035;-76
2021/08/21 07:14:13;;;;;;;7.15;2.53;;;20.60;99.90;;;;;;5091767;28;20104;-75
2021/08/21 07:16:38;;;;;;;5.28;2.72;;;20.70;99.90;;;;;;5092400;28;20419;-75
2021/08/21 07:19:05;;;;;;;7.80;2.67;;;21.00;99.90;;;;;;5092966;28;20028;-75
2021/08/21 07:21:32;;;;;;;7.60;2.70;;;20.70;99.90;;;;;;5092043;28;20116;-76
2021/08/21 07:23:57;;;;;;;2.90;2.60;;;21.00;99.90;;;;;;5091332;28;20473;-74
2021/08/21 07:26:23;;;;;;;2.20;2.00;;;20.80;99.90;;;;;;5093143;28;20035;-75
2021/08/21 07:28:49;;;;;;;8.25;2.65;;;21.10;99.90;;;;;;5093360;28;20415;-75
2021/08/21 07:31:15;;;;;;;3.25;2.35;;;21.40;99.90;;;;;;5092860;28;20035;-75
2021/08/21 07:33:40;;;;;;;2.50;2.17;;;21.50;99.90;;;;;;5093210;28;20039;-76
2021/08/21 07:36:06;;;;;;;4.40;2.75;;;21.50;99.90;;;;;;5092593;28;20024;-73
2021/08/21 07:38:32;;;;;;;4.72;2.45;;;21.50;99.90;;;;;;5093408;28;20020;-75
2021/08/21 07:40:58;;;;;;;4.20;2.67;;;21.90;99.90;;;;;;5092394;28;20035;-73
2021/08/21 07:43:23;;;;;;;4.03;2.30;;;21.70;99.90;;;;;;5091794;28;20040;-75
2021/08/21 07:45:49;;;;;;;5.10;1.92;;;22.10;99.90;;;;;;5092854;28;20444;-76
2021/08/21 07:48:16;;;;;;;2.92;2.03;;;22.40;99.90;;;;;;5088201;28;20385;-74
2021/08/21 07:50:42;;;;;;;2.67;2.17;;;22.70;99.90;;;;;;5090837;28;20080;-77
2021/08/21 07:53:08;;;;;;;4.90;2.53;;;22.70;99.90;;;;;;5090086;28;20056;-67
2021/08/21 07:55:34;;;;;;;2.70;2.15;;;22.50;99.90;;;;;;5090907;28;20495;-77
2021/08/21 07:57:59;;;;;;;3.75;2.47;;;22.50;99.90;;;;;;5086760;28;20103;-72
2021/08/21 08:00:25;;;;;;;4.10;2.58;;;22.70;99.90;;;;;;5089117;28;20032;-78
2021/08/21 08:02:51;;;;;;;3.95;2.20;;;22.80;99.90;;;;;;5090228;28;20185;-76
2021/08/21 08:05:16;;;;;;;4.00;2.20;;;22.90;99.90;;;;;;5089875;28;20063;-79
2021/08/21 08:07:42;;;;;;;5.13;2.78;;;22.90;99.90;;;;;;5089770;28;20575;-77
2021/08/21 08:10:09;;;;;;;6.03;2.10;;;23.00;99.90;;;;;;5090393;28;20031;-77
2021/08/21 08:12:34;;;;;;;2.65;2.35;;;22.70;99.90;;;;;;5090042;28;20055;-78
2021/08/21 08:15:00;;;;;;;3.38;3.08;;;22.40;99.90;;;;;;5089543;28;20106;-72
2021/08/21 08:17:26;;;;;;;3.05;2.00;;;22.60;99.90;;;;;;5091419;28;20418;-77
2021/08/21 08:19:51;;;;;;;2.70;2.40;;;22.90;99.90;;;;;;5090438;28;20077;-78
2021/08/21 08:22:19;;;;;;;5.93;2.60;;;23.10;99.90;;;;;;5090511;28;20810;-77
2021/08/21 08:24:46;;;;;;;2.97;2.25;;;23.00;99.90;;;;;;5089176;28;20032;-77
2021/08/21 08:27:13;;;;;;;2.50;2.30;;;23.20;99.90;;;;;;5088986;28;20020;-76
2021/08/21 08:29:39;;;;;;;4.68;2.70;;;23.30;99.90;;;;;;5089741;28;20039;-79
2021/08/21 08:32:05;;;;;;;2.30;2.10;;;22.80;99.90;;;;;;5088486;28;20027;-78
2021/08/21 08:34:31;;;;;;;4.35;2.15;;;23.20;99.90;;;;;;5086333;28;20712;-78
2021/08/21 08:36:56;;;;;;;3.83;2.78;;;23.50;99.90;;;;;;5086056;28;20082;-80
2021/08/21 08:39:22;;;;;;;5.50;1.95;;;23.90;99.90;;;;;;5091165;28;20296;-79
2021/08/21 08:41:49;;;;;;;4.07;3.03;;;24.40;99.80;;;;;;5090250;28;20020;-80
2021/08/21 08:44:15;;;;;;;3.85;2.53;;;24.50;98.90;;;;;;5090369;28;20036;-79
2021/08/21 08:46:42;;;;;;;10.88;2.80;;;24.60;98.80;;;;;;5090706;28;20055;-80
2021/08/21 08:49:08;;;;;;;2.20;2.00;;;25.20;98.40;;;;;;5091882;28;20028;-80
2021/08/21 08:51:34;;;;;;;4.38;2.70;;;25.40;97.60;;;;;;5092605;28;20044;-82
2021/08/21 08:54:00;;;;;;;4.20;2.63;;;25.80;97.20;;;;;;5091844;28;20076;-78
2021/08/21 08:56:25;;;;;;;3.92;2.42;;;26.10;96.30;;;;;;5092826;28;20081;-80
2021/08/21 08:58:51;;;;;;;4.63;1.85;;;26.20;95.80;;;;;;5091694;28;20047;-80
2021/08/21 09:01:17;;;;;;;5.35;2.90;;;26.00;95.90;;;;;;5093169;28;20118;-80
2021/08/21 09:03:42;;;;;;;2.58;2.38;;;26.40;95.40;;;;;;5097053;28;20051;-80
2021/08/21 09:06:12;;;;;;;4.32;2.13;;;26.70;95.40;;;;;;5093812;28;20028;-79
2021/08/21 09:08:38;;;;;;;2.77;2.30;;;25.70;94.60;;;;;;5097095;28;20020;-80
2021/08/21 09:11:21;;;;;;;2.30;2.08;;;25.90;94.60;;;;;;5097656;28;20035;-80
2021/08/21 09:13:48;;;;;;;2.28;1.95;;;25.80;95.00;;;;;;5101439;28;20031;-79
2021/08/21 09:16:24;;;;;;;2.92;2.00;;;26.40;95.10;;;;;;5101602;28;20163;-79
2021/08/21 09:19:05;;;;;;;3.25;2.20;;;27.00;94.40;;;;;;5100018;28;20039;-80
2021/08/21 09:21:32;;;;;;;14.88;4.15;;;27.60;93.30;;;;;;5094640;28;20052;-79
2021/08/21 09:23:57;;;;;;;2.35;2.00;;;27.30;93.40;;;;;;5091069;28;20044;-79
2021/08/21 09:26:41;;;;;;;4.70;2.28;;;27.40;92.50;;;;;;5090839;28;20036;-79
2021/08/21 09:29:07;;;;;;;5.57;2.65;;;27.30;92.40;;;;;;5091744;28;20055;-79
2021/08/21 09:31:33;;;;;;;3.60;2.45;;;26.50;93.00;;;;;;5091436;28;20476;-78
2021/08/21 09:34:00;;;;;;;4.72;2.35;;;26.80;92.70;;;;;;5089162;28;20028;-78
2021/08/21 09:36:31;;;;;;;4.35;2.10;;;26.60;93.00;;;;;;5090201;28;20475;-78
2021/08/21 09:38:57;;;;;;;;;;;26.40;93.00;;;;;;5091303;28;20032;-79
2021/08/21 09:41:23;;;;;;;2.30;2.10;;;26.20;93.40;;;;;;5090122;28;19942;-78
2021/08/21 09:44:06;;;;;;;4.72;2.58;;;26.00;93.50;;;;;;5091069;28;20063;-77
2021/08/21 09:46:32;;;;;;;4.38;2.63;;;25.70;93.60;;;;;;5087362;28;20120;-79
2021/08/21 09:49:02;;;;;;;3.10;2.75;;;25.80;93.80;;;;;;5087706;28;20149;-80
2021/08/21 09:51:38;;;;;;;3.03;2.35;;;25.70;93.80;;;;;;5086292;28;20024;-45
2021/08/21 09:54:15;;;;;;;2.67;1.90;;;25.70;93.90;;;;;;5088647;28;20036;-55
2021/08/21 09:56:43;;;;;;;2.80;2.10;;;26.50;94.60;;;;;;5087252;28;20421;-50
2021/08/21 09:59:09;;;;;;;4.70;2.13;;;27.50;93.20;;;;;;5086305;28;20071;-49
2021/08/21 10:01:35;;;;;;;2.88;2.40;;;28.20;92.10;;;;;;5088445;28;20429;-45
2021/08/21 10:04:02;;;;;;;4.13;2.30;;;27.40;91.40;;;;;;5088421;28;20050;-45
2021/08/21 10:06:28;;;;;;;4.10;2.78;;;27.00;92.00;;;;;;5088708;28;20051;-46
2021/08/21 10:09:08;;;;;;;4.38;2.30;;;26.80;92.00;;;;;;5088817;28;20051;-46
2021/08/21 10:11:35;;;;;;;3.47;2.63;;;27.20;92.30;;;;;;5088426;28;20028;-48
2021/08/21 10:14:01;;;;;;;3.35;1.92;;;27.40;91.90;;;;;;5088542;28;20032;-47
2021/08/21 10:16:27;;;;;;;2.00;1.90;;;27.30;91.80;;;;;;5087118;28;20039;-46
2021/08/21 10:18:54;;;;;;;1.85;1.75;;;27.60;91.20;;;;;;5087705;28;20118;-45
2021/08/21 10:21:21;;;;;;;2.47;2.22;;;28.00;91.40;;;;;;5086977;28;20041;-49
2021/08/21 10:23:48;;;;;;;4.75;2.30;;;28.30;90.20;;;;;;5086229;28;20033;-46
2021/08/21 10:26:24;;;;;;;5.57;2.20;;;28.40;88.90;;;;;;5091442;28;20120;-45
2021/08/21 10:28:51;;;;;;;2.83;2.13;;;28.40;90.50;;;;;;5089121;28;20028;-46
2021/08/21 10:31:43;;;;;;;2.17;1.90;;;28.70;89.60;;;;;;5091674;28;20045;-47
2021/08/21 10:34:12;;;;;;;2.95;1.60;;;29.40;88.20;;;;;;5089421;28;20056;-47
2021/08/21 10:36:57;;;;;;;3.90;1.83;;;29.50;88.30;;;;;;5092500;28;20028;-47
2021/08/21 10:39:24;;;;;;;4.82;1.70;;;29.60;87.70;;;;;;5091795;28;20532;-45
2021/08/21 10:41:53;;;;;;;2.42;1.73;;;29.90;85.80;;;;;;5092043;28;20026;-46
2021/08/21 10:44:47;;;;;;;4.20;2.30;;;28.90;86.80;;;;;;5092374;28;20496;-45
2021/08/21 10:47:34;;;;;;;2.42;2.10;;;28.20;88.10;;;;;;5089994;28;20100;-43
2021/08/21 10:50:00;;;;;;;2.03;1.80;;;28.50;89.40;;;;;;5090455;28;20031;-63
2021/08/21 10:52:45;;;;;;;2.20;1.50;;;28.70;86.60;;;;;;5085173;28;20146;-63
2021/08/21 10:55:14;;;;;;;3.00;1.58;;;28.80;87.30;;;;;;5089433;28;20570;-63
2021/08/21 10:57:55;;;;;;;4.18;1.92;;;29.20;86.20;;;;;;5089575;28;20024;-63
2021/08/21 11:00:39;;;;;;;3.15;1.50;;;29.10;84.10;;;;;;5088391;28;20115;-65
2021/08/21 11:03:10;;;;;;;4.10;1.50;;;28.60;85.60;;;;;;5087102;28;20016;-69
2021/08/21 11:05:56;;;;;;;1.92;1.80;;;28.60;85.60;;;;;;5089772;28;20036;-62
2021/08/21 11:08:27;;;;;;;2.03;1.67;;;28.90;85.90;;;;;;5088781;28;20032;-62
2021/08/21 11:11:18;;;;;;;3.03;1.92;;;29.20;85.80;;;;;;5076608;28;20053;-63
2021/08/21 11:14:08;;;;;;;3.78;1.75;;;29.60;83.80;;;;;;5082453;28;20468;-62
2021/08/21 11:17:00;;;;;;;1.73;1.63;;;29.90;83.50;;;;;;5074311;28;20020;-63
2021/08/21 11:19:42;;;;;;;3.13;1.60;;;29.70;83.10;;;;;;5085291;28;20281;-66
2021/08/21 11:22:25;;;;;;;2.40;2.20;;;29.60;83.40;;;;;;5087542;28;20060;-66
2021/08/21 11:24:55;;;;;;;3.67;1.80;;;30.10;83.10;;;;;;5088204;28;20078;-64
2021/08/21 11:27:24;;;;;;;4.53;1.77;;;30.10;81.80;;;;;;5088451;28;20491;-63
2021/08/21 11:30:06;;;;;;;3.63;1.88;;;29.80;81.30;;;;;;5090288;28;20012;-70
2021/08/21 11:32:44;;;;;;;3.55;1.83;;;30.00;81.70;;;;;;5089821;28;20020;-71
2021/08/21 11:35:37;;;;;;;2.25;2.05;;;30.00;81.70;;;;;;5087140;28;20035;-71
2021/08/21 11:38:09;;;;;;;3.38;2.15;;;29.90;81.70;;;;;;5086314;28;20461;-70
2021/08/21 11:40:39;;;;;;;3.78;1.92;;;30.20;81.80;;;;;;5088997;28;20024;-65
2021/08/21 11:43:07;;;;;;;1.60;1.50;;;30.10;81.00;;;;;;5086346;28;20047;-71
2021/08/21 11:45:33;;;;;;;1.80;1.70;;;30.40;81.60;;;;;;5088876;28;20288;-62
2021/08/21 11:47:59;;;;;;;2.33;1.83;;;30.90;80.70;;;;;;5088803;28;20051;-65
2021/08/21 11:50:37;;;;;;;11.98;2.00;;;31.00;80.00;;;;;;5087686;28;20024;-62
2021/08/21 11:53:33;;;;;;;2.13;1.75;;;31.10;79.10;;;;;;5090202;28;20032;-62
2021/08/21 11:56:00;;;;;;;2.00;1.73;;;31.30;78.20;;;;;;5088307;28;20040;-63
2021/08/21 11:58:31;;;;;;;3.67;2.00;;;31.20;78.20;;;;;;5087372;28;20145;-63
2021/08/21 12:01:03;;;;;;;2.40;1.80;;;30.90;78.40;;;;;;5088648;28;20016;-63
2021/08/21 12:03:35;;;;;;;3.30;1.98;;;30.80;79.10;;;;;;5089445;28;20032;-63
2021/08/21 12:06:01;;;;;;;3.55;2.00;;;30.80;79.60;;;;;;5090341;28;20020;-64
2021/08/21 12:08:29;;;;;;;3.45;2.00;;;31.00;79.30;;;;;;5089102;28;20020;-62
2021/08/21 12:11:04;;;;;;;2.95;2.25;;;30.30;76.80;;;;;;5090043;28;20020;-63
2021/08/21 12:13:31;;;;;;;2.25;1.60;;;29.90;77.40;;;;;;5089508;28;20114;-64
2021/08/21 12:16:03;;;;;;;2.45;1.90;;;30.10;78.00;;;;;;5090991;28;20020;-63
2021/08/21 12:18:31;;;;;;;2.28;1.90;;;30.40;77.50;;;;;;5091217;28;20032;-63
2021/08/21 12:20:57;;;;;;;1.92;1.83;;;30.60;76.70;;;;;;5089167;28;20051;-62
2021/08/21 12:23:23;;;;;;;2.10;1.73;;;30.00;77.00;;;;;;5091019;28;20032;-62
2021/08/21 12:25:53;;;;;;;4.05;2.00;;;30.10;78.10;;;;;;5091206;28;20057;-62
2021/08/21 12:28:21;;;;;;;9.63;2.08;;;30.30;77.10;;;;;;5089785;28;20449;-62
2021/08/21 12:31:17;;;;;;;5.45;2.38;;;30.40;76.60;;;;;;5090033;28;20350;-61
2021/08/21 12:33:55;;;;;;;3.35;2.03;;;30.50;77.60;;;;;;5067964;28;20130;-62
2021/08/21 12:36:23;;;;;;;2.58;1.70;;;30.80;77.40;;;;;;5088845;28;20035;-63
2021/08/21 12:39:09;;;;;;;3.83;2.08;;;30.80;76.80;;;;;;5091066;28;20103;-63
2021/08/21 12:41:56;;;;;;;2.40;1.67;;;30.80;76.60;;;;;;5090545;28;20392;-63
2021/08/21 12:44:42;;;;;;;2.20;2.00;;;30.70;76.40;;;;;;5090455;28;20043;-63
2021/08/21 12:47:13;;;;;;;1.95;1.80;;;30.70;77.50;;;;;;5089668;28;20051;-69
2021/08/21 12:49:44;;;;;;;2.20;1.80;;;30.80;76.40;;;;;;5091370;28;20091;-63
2021/08/21 12:52:28;;;;;;;2.28;1.55;;;30.40;75.80;;;;;;5090233;28;20130;-69